sensor_id;sensor_type;location;lat;lon;timestamp;P1;durP1;ratioP1;P2;durP2;ratioP2
8568;SDS011;4322;51.104;-4.162;2022-08-11T00:01:09;1.80;;;1.80;;
8568;SDS011;4322;51.104;-4.162;2022-08-11T00:03:44;2.00;;;2.00;;
8568;SDS011;4322;51.104;-4.162;2022-08-11T00:06:14;1.70;;;1.70;;
8568;SDS011;4322;51.104;-4.162;2022-08-11T00:08:49;1.60;;;1.60;;
8568;SDS011;4322;51.104;-4.162;2022-08-11T00:11:19;1.80;;;1.80;;
8568;SDS011;4322;51.104;-4.162;2022-08-11T00:13:55;1.90;;;1.90;;
8568;SDS011;4322;51.104;-4.162;2022-08-11T00:16:24;1.60;;;1.60;;
8568;SDS011;4322;51.104;-4.162;2022-08-11T00:18:53;1.57;;;1.57;;
8568;SDS011;4322;51.104;-4.162;2022-08-11T00:21:22;1.70;;;1.70;;
8568;SDS011;4322;51.104;-4.162;2022-08-11T00:24:13;1.67;;;1.67;;
8568;SDS011;4322;51.104;-4.162;2022-08-11T00:26:47;1.60;;;1.60;;
8568;SDS011;4322;51.104;-4.162;2022-08-11T00:29:16;1.70;;;1.70;;
8568;SDS011;4322;51.104;-4.162;2022-08-11T00:31:46;1.53;;;1.53;;
8568;SDS011;4322;51.104;-4.162;2022-08-11T00:34:17;1.80;;;1.80;;
8568;SDS011;4322;51.104;-4.162;2022-08-11T00:36:49;1.90;;;1.90;;
8568;SDS011;4322;51.104;-4.162;2022-08-11T00:39:20;1.60;;;1.60;;
8568;SDS011;4322;51.104;-4.162;2022-08-11T00:41:58;1.70;;;1.70;;
8568;SDS011;4322;51.104;-4.162;2022-08-11T00:44:41;1.63;;;1.63;;
8568;SDS011;4322;51.104;-4.162;2022-08-11T00:47:18;1.60;;;1.60;;
8568;SDS011;4322;51.104;-4.162;2022-08-11T00:49:57;1.70;;;1.70;;
8568;SDS011;4322;51.104;-4.162;2022-08-11T00:52:46;1.70;;;1.70;;
8568;SDS011;4322;51.104;-4.162;2022-08-11T00:55:34;1.70;;;1.70;;
8568;SDS011;4322;51.104;-4.162;2022-08-11T01:02:07;1.70;;;1.70;;
8568;SDS011;4322;51.104;-4.162;2022-08-11T01:08:03;1.83;;;1.83;;
8568;SDS011;4322;51.104;-4.162;2022-08-11T01:11:01;1.60;;;1.60;;
8568;SDS011;4322;51.104;-4.162;2022-08-11T01:17:06;1.87;;;1.87;;
8568;SDS011;4322;51.104;-4.162;2022-08-11T01:23:30;1.90;;;1.90;;
8568;SDS011;4322;51.104;-4.162;2022-08-11T01:26:36;1.83;;;1.83;;
8568;SDS011;4322;51.104;-4.162;2022-08-11T01:29:52;1.80;;;1.80;;
8568;SDS011;4322;51.104;-4.162;2022-08-11T01:39:12;1.80;;;1.80;;
8568;SDS011;4322;51.104;-4.162;2022-08-11T01:45:29;1.80;;;1.80;;
8568;SDS011;4322;51.104;-4.162;2022-08-11T01:48:05;1.90;;;1.90;;
8568;SDS011;4322;51.104;-4.162;2022-08-11T01:50:45;1.90;;;1.90;;
8568;SDS011;4322;51.104;-4.162;2022-08-11T01:53:27;1.80;;;1.80;;
8568;SDS011;4322;51.104;-4.162;2022-08-11T01:56:12;1.70;;;1.70;;
8568;SDS011;4322;51.104;-4.162;2022-08-11T01:58:56;1.80;;;1.80;;
8568;SDS011;4322;51.104;-4.162;2022-08-11T02:01:42;1.90;;;1.90;;
8568;SDS011;4322;51.104;-4.162;2022-08-11T02:04:32;1.70;;;1.70;;
8568;SDS011;4322;51.104;-4.162;2022-08-11T02:07:09;1.90;;;1.90;;
8568;SDS011;4322;51.104;-4.162;2022-08-11T02:09:55;1.70;;;1.70;;
8568;SDS011;4322;51.104;-4.162;2022-08-11T02:13:05;1.70;;;1.70;;
8568;SDS011;4322;51.104;-4.162;2022-08-11T02:15:41;1.90;;;1.90;;
8568;SDS011;4322;51.104;-4.162;2022-08-11T02:18:21;1.97;;;1.97;;
8568;SDS011;4322;51.104;-4.162;2022-08-11T02:21:15;1.80;;;1.80;;
8568;SDS011;4322;51.104;-4.162;2022-08-11T02:24:10;1.80;;;1.80;;
8568;SDS011;4322;51.104;-4.162;2022-08-11T02:26:45;1.80;;;1.80;;
8568;SDS011;4322;51.104;-4.162;2022-08-11T02:29:20;1.70;;;1.70;;
8568;SDS011;4322;51.104;-4.162;2022-08-11T02:31:57;1.80;;;1.80;;
8568;SDS011;4322;51.104;-4.162;2022-08-11T02:35:08;1.90;;;1.90;;
8568;SDS011;4322;51.104;-4.162;2022-08-11T02:37:52;1.80;;;1.80;;
8568;SDS011;4322;51.104;-4.162;2022-08-11T02:40:33;1.80;;;1.80;;
8568;SDS011;4322;51.104;-4.162;2022-08-11T02:43:13;1.80;;;1.80;;
8568;SDS011;4322;51.104;-4.162;2022-08-11T02:46:00;1.70;;;1.70;;
8568;SDS011;4322;51.104;-4.162;2022-08-11T02:48:46;1.70;;;1.70;;
8568;SDS011;4322;51.104;-4.162;2022-08-11T02:51:41;1.90;;;1.90;;
8568;SDS011;4322;51.104;-4.162;2022-08-11T02:54:22;1.90;;;1.90;;
8568;SDS011;4322;51.104;-4.162;2022-08-11T02:56:56;1.90;;;1.90;;
8568;SDS011;4322;51.104;-4.162;2022-08-11T02:59:42;1.90;;;1.90;;
8568;SDS011;4322;51.104;-4.162;2022-08-11T03:02:47;1.73;;;1.73;;
8568;SDS011;4322;51.104;-4.162;2022-08-11T03:05:23;1.90;;;1.90;;
8568;SDS011;4322;51.104;-4.162;2022-08-11T03:08:10;1.70;;;1.70;;
8568;SDS011;4322;51.104;-4.162;2022-08-11T03:10:47;1.80;;;1.80;;
8568;SDS011;4322;51.104;-4.162;2022-08-11T03:13:41;1.60;;;1.60;;
8568;SDS011;4322;51.104;-4.162;2022-08-11T03:16:31;1.70;;;1.70;;
8568;SDS011;4322;51.104;-4.162;2022-08-11T03:19:15;1.60;;;1.60;;
8568;SDS011;4322;51.104;-4.162;2022-08-11T03:21:52;1.70;;;1.70;;
8568;SDS011;4322;51.104;-4.162;2022-08-11T03:24:34;1.60;;;1.60;;
8568;SDS011;4322;51.104;-4.162;2022-08-11T03:27:07;1.73;;;1.73;;
8568;SDS011;4322;51.104;-4.162;2022-08-11T03:29:38;1.70;;;1.70;;
8568;SDS011;4322;51.104;-4.162;2022-08-11T03:32:18;1.80;;;1.80;;
8568;SDS011;4322;51.104;-4.162;2022-08-11T03:34:54;1.70;;;1.70;;
8568;SDS011;4322;51.104;-4.162;2022-08-11T03:37:38;1.80;;;1.80;;
8568;SDS011;4322;51.104;-4.162;2022-08-11T03:43:28;1.43;;;1.43;;
8568;SDS011;4322;51.104;-4.162;2022-08-11T03:46:26;1.50;;;1.50;;
8568;SDS011;4322;51.104;-4.162;2022-08-11T03:49:06;1.77;;;1.77;;
8568;SDS011;4322;51.104;-4.162;2022-08-11T03:51:46;1.70;;;1.70;;
8568;SDS011;4322;51.104;-4.162;2022-08-11T03:54:24;1.60;;;1.60;;
8568;SDS011;4322;51.104;-4.162;2022-08-11T04:12:13;1.80;;;1.80;;
8568;SDS011;4322;51.104;-4.162;2022-08-11T04:21:56;1.63;;;1.63;;
8568;SDS011;4322;51.104;-4.162;2022-08-11T04:25:01;1.70;;;1.70;;
8568;SDS011;4322;51.104;-4.162;2022-08-11T04:31:01;1.60;;;1.60;;
8568;SDS011;4322;51.104;-4.162;2022-08-11T04:36:35;1.60;;;1.60;;
8568;SDS011;4322;51.104;-4.162;2022-08-11T04:39:34;1.60;;;1.60;;
8568;SDS011;4322;51.104;-4.162;2022-08-11T04:42:29;1.60;;;1.60;;
8568;SDS011;4322;51.104;-4.162;2022-08-11T04:48:46;1.50;;;1.50;;
8568;SDS011;4322;51.104;-4.162;2022-08-11T04:52:01;1.60;;;1.60;;
8568;SDS011;4322;51.104;-4.162;2022-08-11T04:55:10;1.60;;;1.60;;
8568;SDS011;4322;51.104;-4.162;2022-08-11T04:58:18;1.77;;;1.77;;
8568;SDS011;4322;51.104;-4.162;2022-08-11T05:01:17;1.70;;;1.70;;
8568;SDS011;4322;51.104;-4.162;2022-08-11T05:04:15;1.70;;;1.70;;
8568;SDS011;4322;51.104;-4.162;2022-08-11T05:10:36;1.70;;;1.70;;
8568;SDS011;4322;51.104;-4.162;2022-08-11T05:13:23;1.70;;;1.70;;
8568;SDS011;4322;51.104;-4.162;2022-08-11T05:16:12;1.80;;;1.80;;
8568;SDS011;4322;51.104;-4.162;2022-08-11T05:19:14;1.80;;;1.80;;
8568;SDS011;4322;51.104;-4.162;2022-08-11T05:22:02;1.70;;;1.70;;
8568;SDS011;4322;51.104;-4.162;2022-08-11T05:24:55;1.90;;;1.90;;
8568;SDS011;4322;51.104;-4.162;2022-08-11T05:28:08;1.80;;;1.80;;
8568;SDS011;4322;51.104;-4.162;2022-08-11T05:30:57;2.00;;;2.00;;
8568;SDS011;4322;51.104;-4.162;2022-08-11T05:33:52;1.80;;;1.80;;
8568;SDS011;4322;51.104;-4.162;2022-08-11T05:36:44;1.90;;;1.90;;
8568;SDS011;4322;51.104;-4.162;2022-08-11T05:39:15;1.80;;;1.80;;
8568;SDS011;4322;51.104;-4.162;2022-08-11T05:42:03;1.97;;;1.97;;
8568;SDS011;4322;51.104;-4.162;2022-08-11T05:44:56;1.90;;;1.90;;
8568;SDS011;4322;51.104;-4.162;2022-08-11T05:47:49;1.80;;;1.80;;
8568;SDS011;4322;51.104;-4.162;2022-08-11T05:50:35;1.87;;;1.87;;
8568;SDS011;4322;51.104;-4.162;2022-08-11T05:53:22;1.83;;;1.83;;
8568;SDS011;4322;51.104;-4.162;2022-08-11T05:56:11;1.90;;;1.90;;
8568;SDS011;4322;51.104;-4.162;2022-08-11T05:58:45;1.90;;;1.90;;
8568;SDS011;4322;51.104;-4.162;2022-08-11T06:01:20;1.90;;;1.90;;
8568;SDS011;4322;51.104;-4.162;2022-08-11T06:03:52;1.80;;;1.80;;
8568;SDS011;4322;51.104;-4.162;2022-08-11T06:06:48;1.90;;;1.90;;
8568;SDS011;4322;51.104;-4.162;2022-08-11T06:09:26;1.70;;;1.70;;
8568;SDS011;4322;51.104;-4.162;2022-08-11T06:11:57;1.80;;;1.80;;
8568;SDS011;4322;51.104;-4.162;2022-08-11T06:14:27;1.97;;;1.97;;
8568;SDS011;4322;51.104;-4.162;2022-08-11T06:16:58;2.00;;;2.00;;
8568;SDS011;4322;51.104;-4.162;2022-08-11T06:19:33;1.80;;;1.80;;
8568;SDS011;4322;51.104;-4.162;2022-08-11T06:22:03;1.87;;;1.87;;
8568;SDS011;4322;51.104;-4.162;2022-08-11T06:24:32;1.80;;;1.80;;
8568;SDS011;4322;51.104;-4.162;2022-08-11T06:27:02;1.70;;;1.70;;
8568;SDS011;4322;51.104;-4.162;2022-08-11T06:29:45;1.87;;;1.87;;
8568;SDS011;4322;51.104;-4.162;2022-08-11T06:32:22;1.77;;;1.77;;
8568;SDS011;4322;51.104;-4.162;2022-08-11T06:34:57;1.80;;;1.80;;
8568;SDS011;4322;51.104;-4.162;2022-08-11T06:37:37;1.50;;;1.50;;
8568;SDS011;4322;51.104;-4.162;2022-08-11T06:40:11;1.60;;;1.60;;
8568;SDS011;4322;51.104;-4.162;2022-08-11T06:42:53;1.60;;;1.60;;
8568;SDS011;4322;51.104;-4.162;2022-08-11T06:45:29;1.60;;;1.60;;
8568;SDS011;4322;51.104;-4.162;2022-08-11T06:48:01;1.50;;;1.50;;
8568;SDS011;4322;51.104;-4.162;2022-08-11T06:50:33;1.80;;;1.80;;
8568;SDS011;4322;51.104;-4.162;2022-08-11T06:53:19;1.60;;;1.60;;
8568;SDS011;4322;51.104;-4.162;2022-08-11T06:55:48;1.87;;;1.87;;
8568;SDS011;4322;51.104;-4.162;2022-08-11T06:58:35;1.80;;;1.80;;
8568;SDS011;4322;51.104;-4.162;2022-08-11T07:01:28;1.80;;;1.80;;
8568;SDS011;4322;51.104;-4.162;2022-08-11T07:04:05;1.60;;;1.60;;
8568;SDS011;4322;51.104;-4.162;2022-08-11T07:06:43;1.70;;;1.70;;
8568;SDS011;4322;51.104;-4.162;2022-08-11T07:09:51;1.70;;;1.70;;
8568;SDS011;4322;51.104;-4.162;2022-08-11T07:13:02;1.70;;;1.70;;
8568;SDS011;4322;51.104;-4.162;2022-08-11T07:16:11;1.70;;;1.70;;
8568;SDS011;4322;51.104;-4.162;2022-08-11T07:18:49;1.73;;;1.73;;
8568;SDS011;4322;51.104;-4.162;2022-08-11T07:21:33;1.70;;;1.70;;
8568;SDS011;4322;51.104;-4.162;2022-08-11T07:24:32;1.90;;;1.90;;
8568;SDS011;4322;51.104;-4.162;2022-08-11T07:27:32;1.70;;;1.70;;
8568;SDS011;4322;51.104;-4.162;2022-08-11T07:30:38;1.60;;;1.60;;
8568;SDS011;4322;51.104;-4.162;2022-08-11T07:33:07;1.70;;;1.70;;
8568;SDS011;4322;51.104;-4.162;2022-08-11T07:35:59;1.70;;;1.70;;
8568;SDS011;4322;51.104;-4.162;2022-08-11T07:38:32;1.80;;;1.80;;
8568;SDS011;4322;51.104;-4.162;2022-08-11T07:41:14;1.73;;;1.73;;
8568;SDS011;4322;51.104;-4.162;2022-08-11T07:43:45;1.80;;;1.80;;
8568;SDS011;4322;51.104;-4.162;2022-08-11T07:46:17;1.80;;;1.80;;
8568;SDS011;4322;51.104;-4.162;2022-08-11T07:49:04;1.90;;;1.90;;
8568;SDS011;4322;51.104;-4.162;2022-08-11T07:51:52;1.80;;;1.80;;
8568;SDS011;4322;51.104;-4.162;2022-08-11T07:54:38;1.93;;;1.93;;
8568;SDS011;4322;51.104;-4.162;2022-08-11T07:57:12;1.70;;;1.70;;
8568;SDS011;4322;51.104;-4.162;2022-08-11T08:00:18;1.73;;;1.73;;
8568;SDS011;4322;51.104;-4.162;2022-08-11T08:03:04;1.70;;;1.70;;
8568;SDS011;4322;51.104;-4.162;2022-08-11T08:05:50;1.67;;;1.67;;
8568;SDS011;4322;51.104;-4.162;2022-08-11T08:08:56;1.70;;;1.70;;
8568;SDS011;4322;51.104;-4.162;2022-08-11T08:11:49;1.70;;;1.70;;
8568;SDS011;4322;51.104;-4.162;2022-08-11T08:14:36;1.63;;;1.63;;
8568;SDS011;4322;51.104;-4.162;2022-08-11T08:17:21;1.70;;;1.70;;
8568;SDS011;4322;51.104;-4.162;2022-08-11T08:20:09;1.70;;;1.70;;
8568;SDS011;4322;51.104;-4.162;2022-08-11T08:22:41;1.73;;;1.73;;
8568;SDS011;4322;51.104;-4.162;2022-08-11T08:25:14;1.70;;;1.70;;
8568;SDS011;4322;51.104;-4.162;2022-08-11T08:27:43;1.60;;;1.60;;
8568;SDS011;4322;51.104;-4.162;2022-08-11T08:30:14;1.60;;;1.60;;
8568;SDS011;4322;51.104;-4.162;2022-08-11T08:32:59;1.60;;;1.60;;
8568;SDS011;4322;51.104;-4.162;2022-08-11T08:35:29;1.50;;;1.50;;
8568;SDS011;4322;51.104;-4.162;2022-08-11T08:37:58;1.60;;;1.60;;
8568;SDS011;4322;51.104;-4.162;2022-08-11T08:40:27;1.50;;;1.50;;
8568;SDS011;4322;51.104;-4.162;2022-08-11T08:42:55;1.50;;;1.50;;
8568;SDS011;4322;51.104;-4.162;2022-08-11T08:45:26;1.40;;;1.40;;
8568;SDS011;4322;51.104;-4.162;2022-08-11T08:47:58;1.60;;;1.60;;
8568;SDS011;4322;51.104;-4.162;2022-08-11T08:50:29;1.70;;;1.70;;
8568;SDS011;4322;51.104;-4.162;2022-08-11T08:53:13;1.50;;;1.50;;
8568;SDS011;4322;51.104;-4.162;2022-08-11T08:55:46;1.47;;;1.47;;
8568;SDS011;4322;51.104;-4.162;2022-08-11T08:58:18;1.47;;;1.47;;
8568;SDS011;4322;51.104;-4.162;2022-08-11T09:00:50;1.50;;;1.50;;
8568;SDS011;4322;51.104;-4.162;2022-08-11T09:03:20;1.70;;;1.70;;
8568;SDS011;4322;51.104;-4.162;2022-08-11T09:06:10;1.30;;;1.30;;
8568;SDS011;4322;51.104;-4.162;2022-08-11T09:08:41;1.43;;;1.43;;
8568;SDS011;4322;51.104;-4.162;2022-08-11T09:11:10;1.40;;;1.40;;
8568;SDS011;4322;51.104;-4.162;2022-08-11T09:13:57;1.50;;;1.50;;
8568;SDS011;4322;51.104;-4.162;2022-08-11T09:16:34;1.50;;;1.50;;
8568;SDS011;4322;51.104;-4.162;2022-08-11T09:19:04;1.50;;;1.50;;
8568;SDS011;4322;51.104;-4.162;2022-08-11T09:21:34;1.30;;;1.30;;
8568;SDS011;4322;51.104;-4.162;2022-08-11T09:24:14;1.37;;;1.37;;
8568;SDS011;4322;51.104;-4.162;2022-08-11T09:27:03;1.67;;;1.67;;
8568;SDS011;4322;51.104;-4.162;2022-08-11T09:29:32;1.70;;;1.70;;
8568;SDS011;4322;51.104;-4.162;2022-08-11T09:32:05;1.43;;;1.43;;
8568;SDS011;4322;51.104;-4.162;2022-08-11T09:34:34;1.50;;;1.50;;
8568;SDS011;4322;51.104;-4.162;2022-08-11T09:37:05;1.53;;;1.53;;
8568;SDS011;4322;51.104;-4.162;2022-08-11T09:40:12;1.40;;;1.40;;
8568;SDS011;4322;51.104;-4.162;2022-08-11T09:42:58;1.53;;;1.53;;
8568;SDS011;4322;51.104;-4.162;2022-08-11T09:45:46;1.47;;;1.47;;
8568;SDS011;4322;51.104;-4.162;2022-08-11T09:48:18;1.60;;;1.60;;
8568;SDS011;4322;51.104;-4.162;2022-08-11T09:50:49;1.70;;;1.70;;
8568;SDS011;4322;51.104;-4.162;2022-08-11T09:53:19;1.60;;;1.60;;
8568;SDS011;4322;51.104;-4.162;2022-08-11T09:56:08;1.60;;;1.60;;
8568;SDS011;4322;51.104;-4.162;2022-08-11T09:58:57;1.57;;;1.57;;
8568;SDS011;4322;51.104;-4.162;2022-08-11T10:01:27;1.70;;;1.70;;
8568;SDS011;4322;51.104;-4.162;2022-08-11T10:03:59;1.60;;;1.60;;
8568;SDS011;4322;51.104;-4.162;2022-08-11T10:06:30;1.60;;;1.60;;
8568;SDS011;4322;51.104;-4.162;2022-08-11T10:09:22;1.70;;;1.70;;
8568;SDS011;4322;51.104;-4.162;2022-08-11T10:11:52;1.70;;;1.70;;
8568;SDS011;4322;51.104;-4.162;2022-08-11T10:14:24;1.60;;;1.60;;
8568;SDS011;4322;51.104;-4.162;2022-08-11T10:17:12;1.50;;;1.50;;
8568;SDS011;4322;51.104;-4.162;2022-08-11T10:19:44;1.53;;;1.53;;
8568;SDS011;4322;51.104;-4.162;2022-08-11T10:22:31;1.60;;;1.60;;
8568;SDS011;4322;51.104;-4.162;2022-08-11T10:25:19;1.50;;;1.50;;
8568;SDS011;4322;51.104;-4.162;2022-08-11T10:28:07;1.40;;;1.40;;
8568;SDS011;4322;51.104;-4.162;2022-08-11T10:30:57;1.70;;;1.70;;
8568;SDS011;4322;51.104;-4.162;2022-08-11T10:33:43;1.47;;;1.47;;
8568;SDS011;4322;51.104;-4.162;2022-08-11T10:36:31;1.50;;;1.50;;
8568;SDS011;4322;51.104;-4.162;2022-08-11T10:39:01;1.60;;;1.60;;
8568;SDS011;4322;51.104;-4.162;2022-08-11T10:41:31;1.50;;;1.50;;
8568;SDS011;4322;51.104;-4.162;2022-08-11T10:44:35;1.57;;;1.57;;
8568;SDS011;4322;51.104;-4.162;2022-08-11T10:47:05;1.40;;;1.40;;
8568;SDS011;4322;51.104;-4.162;2022-08-11T10:49:51;1.60;;;1.60;;
8568;SDS011;4322;51.104;-4.162;2022-08-11T10:52:36;1.47;;;1.47;;
8568;SDS011;4322;51.104;-4.162;2022-08-11T10:55:22;1.60;;;1.60;;
8568;SDS011;4322;51.104;-4.162;2022-08-11T10:58:09;1.40;;;1.40;;
8568;SDS011;4322;51.104;-4.162;2022-08-11T11:00:56;1.60;;;1.60;;
8568;SDS011;4322;51.104;-4.162;2022-08-11T11:03:27;1.50;;;1.50;;
8568;SDS011;4322;51.104;-4.162;2022-08-11T11:05:59;1.57;;;1.57;;
8568;SDS011;4322;51.104;-4.162;2022-08-11T11:08:57;1.43;;;1.43;;
8568;SDS011;4322;51.104;-4.162;2022-08-11T11:11:32;1.60;;;1.60;;
8568;SDS011;4322;51.104;-4.162;2022-08-11T11:14:22;1.60;;;1.60;;
8568;SDS011;4322;51.104;-4.162;2022-08-11T11:17:17;1.60;;;1.60;;
8568;SDS011;4322;51.104;-4.162;2022-08-11T11:20:09;1.70;;;1.70;;
8568;SDS011;4322;51.104;-4.162;2022-08-11T11:23:03;1.50;;;1.50;;
8568;SDS011;4322;51.104;-4.162;2022-08-11T11:25:49;1.50;;;1.50;;
8568;SDS011;4322;51.104;-4.162;2022-08-11T11:31:35;1.57;;;1.57;;
8568;SDS011;4322;51.104;-4.162;2022-08-11T11:34:20;1.40;;;1.40;;
8568;SDS011;4322;51.104;-4.162;2022-08-11T11:37:18;1.60;;;1.60;;
8568;SDS011;4322;51.104;-4.162;2022-08-11T11:39:47;1.50;;;1.50;;
8568;SDS011;4322;51.104;-4.162;2022-08-11T11:42:17;1.70;;;1.70;;
8568;SDS011;4322;51.104;-4.162;2022-08-11T11:44:46;1.50;;;1.50;;
8568;SDS011;4322;51.104;-4.162;2022-08-11T11:47:20;1.30;;;1.30;;
8568;SDS011;4322;51.104;-4.162;2022-08-11T11:49:50;1.60;;;1.60;;
8568;SDS011;4322;51.104;-4.162;2022-08-11T11:52:20;1.60;;;1.60;;
8568;SDS011;4322;51.104;-4.162;2022-08-11T11:54:50;1.50;;;1.50;;
8568;SDS011;4322;51.104;-4.162;2022-08-11T11:57:23;1.50;;;1.50;;
8568;SDS011;4322;51.104;-4.162;2022-08-11T12:00:24;1.50;;;1.50;;
8568;SDS011;4322;51.104;-4.162;2022-08-11T12:03:12;1.50;;;1.50;;
8568;SDS011;4322;51.104;-4.162;2022-08-11T12:05:41;1.53;;;1.53;;
8568;SDS011;4322;51.104;-4.162;2022-08-11T12:08:10;1.60;;;1.60;;
8568;SDS011;4322;51.104;-4.162;2022-08-11T12:10:43;1.60;;;1.60;;
8568;SDS011;4322;51.104;-4.162;2022-08-11T12:13:13;1.67;;;1.67;;
8568;SDS011;4322;51.104;-4.162;2022-08-11T12:16:00;1.80;;;1.80;;
8568;SDS011;4322;51.104;-4.162;2022-08-11T12:18:50;1.63;;;1.63;;
8568;SDS011;4322;51.104;-4.162;2022-08-11T12:21:20;1.50;;;1.50;;
8568;SDS011;4322;51.104;-4.162;2022-08-11T12:23:50;1.50;;;1.50;;
8568;SDS011;4322;51.104;-4.162;2022-08-11T12:26:38;1.67;;;1.67;;
8568;SDS011;4322;51.104;-4.162;2022-08-11T12:29:44;1.60;;;1.60;;
8568;SDS011;4322;51.104;-4.162;2022-08-11T12:32:21;1.70;;;1.70;;
8568;SDS011;4322;51.104;-4.162;2022-08-11T12:34:50;1.60;;;1.60;;
8568;SDS011;4322;51.104;-4.162;2022-08-11T12:37:23;1.67;;;1.67;;
8568;SDS011;4322;51.104;-4.162;2022-08-11T12:39:57;1.63;;;1.63;;
8568;SDS011;4322;51.104;-4.162;2022-08-11T12:43:06;1.70;;;1.70;;
8568;SDS011;4322;51.104;-4.162;2022-08-11T12:46:06;1.60;;;1.60;;
8568;SDS011;4322;51.104;-4.162;2022-08-11T12:48:40;1.67;;;1.67;;
8568;SDS011;4322;51.104;-4.162;2022-08-11T12:51:30;1.60;;;1.60;;
8568;SDS011;4322;51.104;-4.162;2022-08-11T12:54:40;1.50;;;1.50;;
8568;SDS011;4322;51.104;-4.162;2022-08-11T12:57:15;1.50;;;1.50;;
8568;SDS011;4322;51.104;-4.162;2022-08-11T13:00:04;1.53;;;1.53;;
8568;SDS011;4322;51.104;-4.162;2022-08-11T13:02:52;1.70;;;1.70;;
8568;SDS011;4322;51.104;-4.162;2022-08-11T13:05:39;1.50;;;1.50;;
8568;SDS011;4322;51.104;-4.162;2022-08-11T13:08:10;1.40;;;1.40;;
8568;SDS011;4322;51.104;-4.162;2022-08-11T13:10:40;1.47;;;1.47;;
8568;SDS011;4322;51.104;-4.162;2022-08-11T13:13:27;1.50;;;1.50;;
8568;SDS011;4322;51.104;-4.162;2022-08-11T13:16:16;1.67;;;1.67;;
8568;SDS011;4322;51.104;-4.162;2022-08-11T13:18:47;1.57;;;1.57;;
8568;SDS011;4322;51.104;-4.162;2022-08-11T13:21:19;1.60;;;1.60;;
8568;SDS011;4322;51.104;-4.162;2022-08-11T13:23:48;1.60;;;1.60;;
8568;SDS011;4322;51.104;-4.162;2022-08-11T13:26:27;1.53;;;1.53;;
8568;SDS011;4322;51.104;-4.162;2022-08-11T13:29:14;1.33;;;1.33;;
8568;SDS011;4322;51.104;-4.162;2022-08-11T13:31:44;1.50;;;1.50;;
8568;SDS011;4322;51.104;-4.162;2022-08-11T13:34:15;1.50;;;1.50;;
8568;SDS011;4322;51.104;-4.162;2022-08-11T13:36:45;1.50;;;1.50;;
8568;SDS011;4322;51.104;-4.162;2022-08-11T13:39:15;1.50;;;1.50;;
8568;SDS011;4322;51.104;-4.162;2022-08-11T13:41:45;1.40;;;1.40;;
8568;SDS011;4322;51.104;-4.162;2022-08-11T13:44:15;1.43;;;1.43;;
8568;SDS011;4322;51.104;-4.162;2022-08-11T13:46:51;1.40;;;1.40;;
8568;SDS011;4322;51.104;-4.162;2022-08-11T13:49:22;1.40;;;1.40;;
8568;SDS011;4322;51.104;-4.162;2022-08-11T13:51:51;1.60;;;1.60;;
8568;SDS011;4322;51.104;-4.162;2022-08-11T13:54:22;1.30;;;1.30;;
8568;SDS011;4322;51.104;-4.162;2022-08-11T13:56:52;1.27;;;1.27;;
8568;SDS011;4322;51.104;-4.162;2022-08-11T13:59:22;1.40;;;1.40;;
8568;SDS011;4322;51.104;-4.162;2022-08-11T14:01:57;1.30;;;1.30;;
8568;SDS011;4322;51.104;-4.162;2022-08-11T14:04:51;1.43;;;1.43;;
8568;SDS011;4322;51.104;-4.162;2022-08-11T14:07:23;1.47;;;1.47;;
8568;SDS011;4322;51.104;-4.162;2022-08-11T14:09:55;1.40;;;1.40;;
8568;SDS011;4322;51.104;-4.162;2022-08-11T14:12:26;1.30;;;1.30;;
8568;SDS011;4322;51.104;-4.162;2022-08-11T14:15:15;1.43;;;1.43;;
8568;SDS011;4322;51.104;-4.162;2022-08-11T14:17:47;1.20;;;1.20;;
8568;SDS011;4322;51.104;-4.162;2022-08-11T14:20:20;1.40;;;1.40;;
8568;SDS011;4322;51.104;-4.162;2022-08-11T14:23:05;1.50;;;1.50;;
8568;SDS011;4322;51.104;-4.162;2022-08-11T14:25:36;1.40;;;1.40;;
8568;SDS011;4322;51.104;-4.162;2022-08-11T14:28:28;1.40;;;1.40;;
8568;SDS011;4322;51.104;-4.162;2022-08-11T14:31:09;1.40;;;1.40;;
8568;SDS011;4322;51.104;-4.162;2022-08-11T14:33:38;1.50;;;1.50;;
8568;SDS011;4322;51.104;-4.162;2022-08-11T14:36:29;1.40;;;1.40;;
8568;SDS011;4322;51.104;-4.162;2022-08-11T14:39:00;1.30;;;1.30;;
8568;SDS011;4322;51.104;-4.162;2022-08-11T14:41:30;1.40;;;1.40;;
8568;SDS011;4322;51.104;-4.162;2022-08-11T14:44:37;1.40;;;1.40;;
8568;SDS011;4322;51.104;-4.162;2022-08-11T14:47:25;1.40;;;1.40;;
8568;SDS011;4322;51.104;-4.162;2022-08-11T14:49:57;1.50;;;1.50;;
8568;SDS011;4322;51.104;-4.162;2022-08-11T14:52:40;1.40;;;1.40;;
8568;SDS011;4322;51.104;-4.162;2022-08-11T14:55:12;1.33;;;1.33;;
8568;SDS011;4322;51.104;-4.162;2022-08-11T14:57:58;1.43;;;1.43;;
8568;SDS011;4322;51.104;-4.162;2022-08-11T15:00:28;1.30;;;1.30;;
8568;SDS011;4322;51.104;-4.162;2022-08-11T15:02:57;1.50;;;1.50;;
8568;SDS011;4322;51.104;-4.162;2022-08-11T15:05:40;1.50;;;1.50;;
8568;SDS011;4322;51.104;-4.162;2022-08-11T15:08:25;1.43;;;1.43;;
8568;SDS011;4322;51.104;-4.162;2022-08-11T15:11:14;1.10;;;1.10;;
8568;SDS011;4322;51.104;-4.162;2022-08-11T15:14:02;1.30;;;1.30;;
8568;SDS011;4322;51.104;-4.162;2022-08-11T15:16:32;1.40;;;1.40;;
8568;SDS011;4322;51.104;-4.162;2022-08-11T15:19:20;1.30;;;1.30;;
8568;SDS011;4322;51.104;-4.162;2022-08-11T15:22:06;1.30;;;1.30;;
8568;SDS011;4322;51.104;-4.162;2022-08-11T15:24:55;1.30;;;1.30;;
8568;SDS011;4322;51.104;-4.162;2022-08-11T15:27:24;1.27;;;1.27;;
8568;SDS011;4322;51.104;-4.162;2022-08-11T15:30:14;1.50;;;1.50;;
8568;SDS011;4322;51.104;-4.162;2022-08-11T15:33:02;1.30;;;1.30;;
8568;SDS011;4322;51.104;-4.162;2022-08-11T15:35:59;1.40;;;1.40;;
8568;SDS011;4322;51.104;-4.162;2022-08-11T15:38:48;1.30;;;1.30;;
8568;SDS011;4322;51.104;-4.162;2022-08-11T15:41:22;1.40;;;1.40;;
8568;SDS011;4322;51.104;-4.162;2022-08-11T15:44:24;1.30;;;1.30;;
8568;SDS011;4322;51.104;-4.162;2022-08-11T15:47:31;1.40;;;1.40;;
8568;SDS011;4322;51.104;-4.162;2022-08-11T15:50:03;1.40;;;1.40;;
8568;SDS011;4322;51.104;-4.162;2022-08-11T15:52:41;1.40;;;1.40;;
8568;SDS011;4322;51.104;-4.162;2022-08-11T15:55:16;1.33;;;1.33;;
8568;SDS011;4322;51.104;-4.162;2022-08-11T15:57:48;1.40;;;1.40;;
8568;SDS011;4322;51.104;-4.162;2022-08-11T16:00:37;1.30;;;1.30;;
8568;SDS011;4322;51.104;-4.162;2022-08-11T16:03:37;1.30;;;1.30;;
8568;SDS011;4322;51.104;-4.162;2022-08-11T16:06:34;1.40;;;1.40;;
8568;SDS011;4322;51.104;-4.162;2022-08-11T16:09:13;1.40;;;1.40;;
8568;SDS011;4322;51.104;-4.162;2022-08-11T16:11:44;1.40;;;1.40;;
8568;SDS011;4322;51.104;-4.162;2022-08-11T16:14:16;1.33;;;1.33;;
8568;SDS011;4322;51.104;-4.162;2022-08-11T16:17:03;1.40;;;1.40;;
8568;SDS011;4322;51.104;-4.162;2022-08-11T16:19:33;1.40;;;1.40;;
8568;SDS011;4322;51.104;-4.162;2022-08-11T16:22:04;1.50;;;1.50;;
8568;SDS011;4322;51.104;-4.162;2022-08-11T16:24:37;1.40;;;1.40;;
8568;SDS011;4322;51.104;-4.162;2022-08-11T16:27:30;1.30;;;1.30;;
8568;SDS011;4322;51.104;-4.162;2022-08-11T16:30:03;1.50;;;1.50;;
8568;SDS011;4322;51.104;-4.162;2022-08-11T16:32:33;1.40;;;1.40;;
8568;SDS011;4322;51.104;-4.162;2022-08-11T16:35:04;1.50;;;1.50;;
8568;SDS011;4322;51.104;-4.162;2022-08-11T16:37:52;1.50;;;1.50;;
8568;SDS011;4322;51.104;-4.162;2022-08-11T16:40:41;1.40;;;1.40;;
8568;SDS011;4322;51.104;-4.162;2022-08-11T16:43:16;1.40;;;1.40;;
8568;SDS011;4322;51.104;-4.162;2022-08-11T16:46:06;1.50;;;1.50;;
8568;SDS011;4322;51.104;-4.162;2022-08-11T16:48:57;1.30;;;1.30;;
8568;SDS011;4322;51.104;-4.162;2022-08-11T16:51:26;1.40;;;1.40;;
8568;SDS011;4322;51.104;-4.162;2022-08-11T16:53:55;1.40;;;1.40;;
8568;SDS011;4322;51.104;-4.162;2022-08-11T16:56:33;1.50;;;1.50;;
8568;SDS011;4322;51.104;-4.162;2022-08-11T16:59:04;1.50;;;1.50;;
8568;SDS011;4322;51.104;-4.162;2022-08-11T17:01:45;1.50;;;1.50;;
8568;SDS011;4322;51.104;-4.162;2022-08-11T17:04:29;1.50;;;1.50;;
8568;SDS011;4322;51.104;-4.162;2022-08-11T17:07:21;1.43;;;1.43;;
8568;SDS011;4322;51.104;-4.162;2022-08-11T17:10:11;1.50;;;1.50;;
8568;SDS011;4322;51.104;-4.162;2022-08-11T17:13:21;1.50;;;1.50;;
8568;SDS011;4322;51.104;-4.162;2022-08-11T17:15:56;1.53;;;1.53;;
8568;SDS011;4322;51.104;-4.162;2022-08-11T17:18:36;1.50;;;1.50;;
8568;SDS011;4322;51.104;-4.162;2022-08-11T17:21:19;1.43;;;1.43;;
8568;SDS011;4322;51.104;-4.162;2022-08-11T17:23:52;1.57;;;1.57;;
8568;SDS011;4322;51.104;-4.162;2022-08-11T17:26:24;1.40;;;1.40;;
8568;SDS011;4322;51.104;-4.162;2022-08-11T17:29:13;1.43;;;1.43;;
8568;SDS011;4322;51.104;-4.162;2022-08-11T17:31:43;1.50;;;1.50;;
8568;SDS011;4322;51.104;-4.162;2022-08-11T17:34:32;1.50;;;1.50;;